CheckWX is a tool to help pilots better visualize weather data.  It is not intended as a substitute for an official pre-flight weather briefing.

18:32:01 UTC

CYFT METAR
Makkovik Airport
Makkovik, Canada
Current

32 mins ago

CYFT 171800Z 25023G30KT 15SM DRSN FEW028 BKN100 M13/M18 A2912 RMK SC2AC3 SLP868
Observed
Feb-17 @ 18:00 UTC
Wind
  • 250° at 23 KTS
  • Gusting to 30 KTS
Visibility
15 SM
Flight Rules
VFR
Conditions
Low drifting Snow
Cloud Levels
  • Few at 2,800' AGL
  • Broken at 10,000' AGL
Temperature
-13°C / 9°F
Dewpoint
-18°C / -0°F
Humidity
66%
Altimeter
29.12" Hg
Pressure
986.8 hPa
Previous

2 hours ago

CYFT 171700Z 25026KT 14SM DRSN SCT025 SCT100 M13/M17 A2911 RMK SC3AC1 SLP866
Observed
Feb-17 @ 17:00 UTC
Wind
  • 250° at 26 KTS
Visibility
14 SM
Flight Rules
VFR
Conditions
Low drifting Snow
Cloud Levels
  • Scattered at 2,500' AGL
  • Scattered at 10,000' AGL
Temperature
-13°C / 9°F
Dewpoint
-17°C / 1°F
Humidity
72%
Altimeter
29.11" Hg
Pressure
986.6 hPa
Previous

3 hours ago

CYFT 171600Z 25025G35KT 15SM DRSN SCT025 M12/M16 A2912 RMK SC3 SLP869
Observed
Feb-17 @ 16:00 UTC
Wind
  • 250° at 25 KTS
  • Gusting to 35 KTS
Visibility
15 SM
Flight Rules
VFR
Conditions
Low drifting Snow
Cloud Levels
  • Scattered at 2,500' AGL
Temperature
-12°C / 10°F
Dewpoint
-16°C / 3°F
Humidity
72%
Altimeter
29.12" Hg
Pressure
986.9 hPa